Ann Arbor, MI

10:35 PM EDT on September 30, 2016 (GMT -0400)
Emerson School | | Change Station

Elev 1014 ft 42.25 °N, 83.84 °W | Updated 0 second ago

Overcast
Overcast
60.4 °F
Feels Like 60.4 °F
N
6.7
Wind Variable Wind from NNE
Gusts 9.8 mph

Today
High -- | Low -- °F
--% Chance of Precip.
Yesterday
High -- | Low -- °F
Precip. -- in
Pressure 30.09 in
Visibility 10.0 miles
Clouds Mostly Cloudy 600 ft
Overcast 1000 ft
Dew Point 60 °F
Humidity 99%
Rainfall 0.24 in
Snow Depth Not available.
7:31 AM 7:17 PM
New Moon, 0% visible
METAR KARB 010153Z AUTO 04006KT 10SM BKN006 OVC010 16/16 A3009 RMK AO2 CIG 004V009 SLP188 T01610156
Pressure 30.09 in
Visibility 10.0 miles
Clouds Mostly Cloudy 600 ft
Overcast 1000 ft
Dew Point 60 °F
Humidity 99%
Rainfall 0.24 in
Snow Depth Not available.
7:31 AM 7:17 PM
New Moon, 0% visible
METAR KARB 010153Z AUTO 04006KT 10SM BKN006 OVC010 16/16 A3009 RMK AO2 CIG 004V009 SLP188 T01610156

10-Day Weather Forecast

Almanac

Astronomy

Sep. 30, 2016 Rise Set
Actual Time
Civil Twilight
Nautical Twilight
Astronomical Twilight
Moon
Length of Visible Light
Length of Day
Tomorrow will be .
, % of the Moon is Illuminated

Today's Extremes

State Highs State Lows

Community

WunderPhotos

Upload Photos

1,942,875 photos uploaded!

WunderBlog® & News

Nearby

Air Quality

  Air Quality AQ Index Pollutant
Not available.

Snow Depth

Station Depth Elevation

Earthquake Activity

City Distance Mag. Time & Date
Minimum magnitude displayed is 2.5.

Coastal Water Temperatures

Place Temperature

Stations

Nearby Weather Stations

Station Location Temp. Windchill Dew Point Humidity Wind Precip. Elev Updated Type
                   

Watches & Warnings

There are currently no watches in effect.